• Join FlightAware (Why Join?)
  • Login
  • US Flag 
08:59AM EST


 

Airport Tracker/Info


-or-


 

Live Flight TrackerFlight Track Log ✈ N738LC ✈ 30-Apr-2014 ✈ KFSM - KJEF

Flight Track Log - Related Links

Times and Time Zones

All times are in EDT time to prevent confusion due to time zone crossing. See the N738LC flight status page for this flight to view local times or setup timezone preferences in your user account.

Time Position Orientation Groundspeed Altitude Reporting Facility
EDT Latitude Longitude Course Direction KTS MPH feet Rate Location/Type
08:37AM 35.3600 -94.4008 25° Northeast 81 93 2,900  Level Memphis Center
08:38AM 35.3781 -94.3883 29° Northeast 80 92 3,700 600 Climbing Memphis Center
08:39AM 35.3953 -94.3767 29° Northeast 77 89 4,200 540 Climbing Memphis Center
08:40AM 35.4722 -94.2611 25° Northeast  Level FlightAware Approximate
08:40AM 35.4128 -94.3639 31° Northeast 76 87 4,900  Level Memphis Center
08:41AM 35.5019 -94.2442 25° Northeast  Level FlightAware Approximate
08:41AM 35.4344 -94.3508 26° Northeast 74 85 5,600  Level Memphis Center
08:42AM 35.5316 -94.2272 25° Northeast  Level FlightAware Approximate
08:42AM 35.4531 -94.3394 26° Northeast 74 85 6,100  Level Memphis Center
08:43AM 35.4708 -94.3278 28° Northeast 74 85 6,500 360 Climbing Memphis Center
08:44AM 35.4903 -94.3153 28° Northeast 75 86 6,900 360 Climbing Memphis Center
08:45AM 35.5106 -94.3039 25° Northeast 76 87 7,300 300 Climbing Memphis Center
08:46AM 35.5289 -94.2914 29° Northeast 76 87 7,600 240 Climbing Memphis Center
08:47AM 35.5481 -94.2806 25° Northeast 76 87 7,900 240 Climbing Memphis Center
08:48AM 35.5661 -94.2678 30° Northeast 76 87 8,200 300 Climbing Memphis Center
08:49AM 35.5886 -94.2542 26° Northeast 76 87 8,600 300 Climbing Memphis Center
08:50AM 35.6083 -94.2422 26° Northeast 76 87 8,900 240 Climbing Memphis Center
08:51AM 35.6267 -94.2283 32° Northeast 76 87 9,100 60 Climbing Memphis Center
08:52AM 35.6500 -94.2136 27° Northeast 81 93 9,100  Level Memphis Center
08:53AM 35.6769 -94.1953 29° Northeast 96 110 9,100 -60 Level Memphis Center
08:54AM 35.7028 -94.1747 33° Northeast 104 120 9,000 -120 Descending Memphis Center
08:55AM 35.7311 -94.1553 29° Northeast 111 128 8,900  Descending Memphis Center
08:56AM 35.7644 -94.1339 28° Northeast 112 129 9,000  Climbing Memphis Center
08:57AM 35.7925 -94.1156 28° Northeast 112 129 9,000 -60 Level Memphis Center
08:58AM 35.8192 -94.0967 30° Northeast 112 129 8,900 -60 Descending Memphis Center
08:59AM 35.8458 -94.0789 28° Northeast 111 128 8,900  Level Memphis Center
09:00AM 35.8714 -94.0622 28° Northeast 108 124 8,900  Level Memphis Center
09:02AM 35.8972 -94.0453 28° Northeast 108 124 8,900 60 Level Memphis Center
09:03AM 35.9283 -94.0250 28° Northeast 108 124 9,100 60 Climbing Memphis Center
09:04AM 35.9553 -94.0072 28° Northeast 108 124 9,100  Level Memphis Center
09:05AM 35.9817 -93.9908 27° Northeast 108 124 9,100  Level Memphis Center
09:06AM 36.0111 -93.9725 27° Northeast 108 124 9,100  Level Memphis Center
09:07AM 36.0378 -93.9539 29° Northeast 108 124 9,100  Level Memphis Center
09:08AM 36.0644 -93.9356 29° Northeast 108 124 9,100  Level Memphis Center
09:09AM 36.0914 -93.9175 28° Northeast 109 125 9,200  Climbing Memphis Center
09:10AM 36.1261 -93.8944 28° Northeast 110 127 9,100  Descending Memphis Center
09:11AM 36.1525 -93.8758 30° Northeast 110 127 9,200  Climbing Memphis Center
09:12AM 36.1806 -93.8567 29° Northeast 110 127 9,200  Level Memphis Center
09:13AM 36.2092 -93.8397 26° Northeast 110 127 9,200  Level Memphis Center
09:14AM 36.2375 -93.8214 28° Northeast 111 128 9,200  Level Memphis Center
09:15AM 36.2656 -93.8017 30° Northeast 111 128 9,200  Level Memphis Center
09:16AM 36.2992 -93.7789 29° Northeast 111 128 9,200  Level Memphis Center
09:17AM 36.3278 -93.7625 25° Northeast 111 128 9,200 -60 Level Memphis Center
09:18AM 36.3572 -93.7422 29° Northeast 114 131 9,100 -60 Descending Memphis Center
09:19AM 36.3867 -93.7231 28° Northeast 117 135 9,100 -60 Level Memphis Center
09:20AM 36.4139 -93.7031 31° Northeast 117 135 9,000 -60 Descending Memphis Center
09:21AM 36.4439 -93.6844 27° Northeast 117 135 9,000 -60 Level Memphis Center
09:22AM 36.4764 -93.6617 29° Northeast 117 135 8,900 -60 Descending Memphis Center
09:23AM 36.5058 -93.6422 28° Northeast 117 135 8,900  Level Memphis Center
09:24AM 36.5336 -93.6239 28° Northeast 117 135 8,900  Level Memphis Center
09:25AM 36.5614 -93.6058 28° Northeast 116 133 8,900  Level Memphis Center
09:26AM 36.5886 -93.5869 29° Northeast 116 133 8,900  Level Memphis Center
09:27AM 36.6161 -93.5672 30° Northeast 116 133 8,900  Level Memphis Center
09:28AM 36.6519 -93.5450 26° Northeast 116 133 8,900  Level Memphis Center
09:29AM 36.6803 -93.5242 31° Northeast 116 133 8,900  Level Memphis Center
09:30AM 36.7089 -93.5069 26° Northeast 116 133 8,900  Level Memphis Center
09:32AM 36.7344 -93.4878 31° Northeast 116 133 8,900  Level Memphis Center
09:32AM 36.7572 -93.4764 22° Northeast 113 130 8,900 60 Level Kansas City Center
09:33AM 36.7753 -93.4597 36° Northeast 114 131 9,000  Climbing Kansas City Center
09:34AM 36.8033 -93.4417 27° Northeast 114 131 9,000 -60 Level Kansas City Center
09:35AM 36.8286 -93.4236 30° Northeast 113 130 8,900 -60 Descending Kansas City Center
09:36AM 36.8567 -93.4053 28° Northeast 112 129 8,900  Level Kansas City Center
09:36AM 36.8675 -93.4003 20° North 110 127 8,900  Level Kansas City Center
09:37AM 36.8889 -93.3836 32° Northeast 111 128 8,900  Level Kansas City Center
09:38AM 36.9167 -93.3658 27° Northeast 111 128 8,900  Level Kansas City Center
09:39AM 36.9433 -93.3458 31° Northeast 111 128 8,900  Level Kansas City Center
09:40AM 36.9708 -93.3278 28° Northeast 111 128 8,900  Level Kansas City Center
09:41AM 36.9856 -93.3183 27° Northeast 109 125 8,900  Level Kansas City Center
09:41AM 36.9975 -93.3094 31° Northeast 110 127 8,900 60 Level Kansas City Center
09:42AM 37.0256 -93.2914 27° Northeast 110 127 9,000  Climbing Kansas City Center
09:43AM 37.0539 -93.2736 27° Northeast 111 128 9,000  Level Kansas City Center
09:44AM 37.0819 -93.2536 30° Northeast 112 129 9,000 -60 Level Kansas City Center
09:45AM 37.1097 -93.2342 29° Northeast 112 129 8,900 -60 Descending Kansas City Center
09:46AM 37.1428 -93.2119 28° Northeast 112 129 8,900  Level Kansas City Center
09:47AM 37.1703 -93.1925 29° Northeast 112 129 8,900  Level Kansas City Center
09:48AM 37.1953 -93.1711 34° Northeast 113 130 8,900  Level Kansas City Center
09:49AM 37.2250 -93.1525 26° Northeast 112 129 8,900  Level Kansas City Center
09:50AM 37.2525 -93.1331 29° Northeast 113 130 8,900  Level Kansas City Center
09:51AM 37.2803 -93.1139 29° Northeast 113 130 8,900  Level Kansas City Center
09:52AM 37.3053 -93.0917 35° Northeast 111 128 8,900  Level Kansas City Center
09:53AM 37.3347 -93.0753 24° Northeast 113 130 8,900  Level Kansas City Center
09:55AM 37.3678 -93.0519 29° Northeast 112 129 8,900  Level Kansas City Center
09:56AM 37.3950 -93.0347 27° Northeast 112 129 8,900  Level Kansas City Center
09:56AM 37.4153 -93.0169 35° Northeast 113 130 8,900  Level Kansas City Center
09:57AM 37.4228 -93.0147 13° North 112 129 8,900  Level Kansas City Center
09:58AM 37.4506 -92.9950 29° Northeast 113 130 8,900  Level Kansas City Center
09:59AM 37.4778 -92.9761 29° Northeast 113 130 8,900  Level Kansas City Center
10:00AM 37.5061 -92.9556 30° Northeast 113 130 8,900  Level Kansas City Center
10:00AM 37.5269 -92.9369 35° Northeast 116 133 8,900  Level Kansas City Center
10:01AM 37.5347 -92.9358 North 114 131 8,900  Level Kansas City Center
10:02AM 37.5628 -92.9156 30° Northeast 114 131 8,900  Level Kansas City Center
10:03AM 37.5964 -92.8933 28° Northeast 113 130 8,900  Level Kansas City Center
10:04AM 37.6236 -92.8739 29° Northeast 113 130 8,900  Level Kansas City Center
10:04AM 37.6367 -92.8594 41° Northeast 114 131 8,900  Level Kansas City Center
10:05AM 37.6514 -92.8550 13° North 113 130 8,900  Level Kansas City Center
10:06AM 37.6794 -92.8356 29° Northeast 113 130 8,900  Level Kansas City Center
10:07AM 37.7072 -92.8156 30° Northeast 113 130 8,900  Level Kansas City Center
10:08AM 37.7356 -92.7961 28° Northeast 113 130 8,900  Level Kansas City Center
10:09AM 37.7625 -92.7778 28° Northeast 113 130 9,000  Climbing Kansas City Center
10:10AM 37.7903 -92.7581 29° Northeast 113 130 9,000  Level Kansas City Center
10:11AM 37.8192 -92.7367 30° Northeast 117 135 9,000  Level Kansas City Center
10:12AM 37.8525 -92.7142 28° Northeast 113 130 9,000 -60 Level Kansas City Center
10:13AM 37.8817 -92.6933 29° Northeast 114 131 8,900 -300 Descending Kansas City Center
10:14AM 37.9136 -92.6714 28° Northeast 122 140 8,400 -600 Descending Kansas City Center
10:15AM 37.9403 -92.6481 35° Northeast 136 157 7,800 -720 Descending Kansas City Center
10:15AM 37.9442 -92.6447 34° Northeast 127 146 7,700 -600 Descending Kansas City Center
10:16AM 37.9719 -92.6147 40° Northeast 129 148 7,100 -720 Descending Kansas City Center
10:17AM 37.9994 -92.5858 40° Northeast 129 148 6,300 -900 Descending Kansas City Center
10:18AM 38.0267 -92.5581 39° Northeast 128 147 5,300 -1,200 Descending Kansas City Center
10:19AM 38.0483 -92.5386 35° Northeast 124 143 4,200 -1,620 Descending Kansas City Center
10:19AM 38.0542 -92.5308 46° Northeast 128 147 3,700 -840 Descending Kansas City Center
10:20AM 38.0803 -92.5025 40° Northeast 127 146 3,100 -360 Descending Kansas City Center
10:21AM 38.1114 -92.4692 40° Northeast 122 140 3,000 -60 Descending Kansas City Center
10:22AM 38.1372 -92.4403 41° Northeast 122 140 3,000 -120 Level Kansas City Center
10:23AM 38.1519 -92.4236 42° Northeast 120 138 2,900 -120 Descending Kansas City Center
10:23AM 38.1631 -92.4131 37° Northeast 122 140 2,900 60 Level Kansas City Center
10:24AM 38.1914 -92.3950 27° Northeast 117 135 3,000  Climbing Kansas City Center
10:25AM 38.2181 -92.3792 25° Northeast 111 128 3,000  Level Kansas City Center
10:26AM 38.2469 -92.3614 26° Northeast 111 128 3,000 60 Level Kansas City Center
10:27AM 38.2647 -92.3503 26° Northeast 119 137 3,100 60 Climbing Kansas City Center
10:28AM 38.2769 -92.3428 26° Northeast 113 130 3,100 -120 Level Kansas City Center
10:29AM 38.3050 -92.3225 30° Northeast 113 130 3,000 -60 Descending Kansas City Center
10:30AM 38.3328 -92.3025 29° Northeast 113 130 3,000 -60 Level Kansas City Center
10:31AM 38.3661 -92.2800 28° Northeast 113 130 2,900 -60 Descending Kansas City Center
10:32AM 38.3936 -92.2611 28° Northeast 113 130 2,900  Level Kansas City Center
10:33AM 38.4219 -92.2417 28° Northeast 113 130 3,000 -120 Climbing Kansas City Center
10:34AM 38.4514 -92.2200 30° Northeast 114 131 2,700 -360 Descending Kansas City Center
10:35AM 38.4819 -92.1908 37° Northeast 125 144 2,300 -300 Descending Kansas City Center
10:36AM 38.5103 -92.1592 41° Northeast 130 150 2,100 -300 Descending Kansas City Center
10:37AM 38.5394 -92.1364 31° Northeast 129 148 1,800 -480 Descending Kansas City Center
10:38AM 38.5678 -92.1347 North 112 129 1,200 -420 Descending Kansas City Center
10:39AM 38.5908 -92.1386 352° North 98 113 1,000 -240 Descending Kansas City Center
10:41AM 38.5912 -92.1561 230° Southwest  Level Estimated
10:48AM 38.5912 -92.1561 28° Northeast  Level Estimated